sensor_id;sensor_type;location;lat;lon;timestamp;P1;durP1;ratioP1;P2;durP2;ratioP2
12024;SDS011;6073;53.230;10.444;2023-04-24T00:00:24;4.68;;;4.20;;
12024;SDS011;6073;53.230;10.444;2023-04-24T00:02:49;3.92;;;3.63;;
12024;SDS011;6073;53.230;10.444;2023-04-24T00:05:16;4.13;;;3.78;;
12024;SDS011;6073;53.230;10.444;2023-04-24T00:07:43;4.32;;;3.83;;
12024;SDS011;6073;53.230;10.444;2023-04-24T00:10:09;3.72;;;3.42;;
12024;SDS011;6073;53.230;10.444;2023-04-24T00:12:36;4.18;;;3.85;;
12024;SDS011;6073;53.230;10.444;2023-04-24T00:15:02;4.13;;;3.72;;
12024;SDS011;6073;53.230;10.444;2023-04-24T00:17:28;4.43;;;3.75;;
12024;SDS011;6073;53.230;10.444;2023-04-24T00:19:53;4.18;;;3.78;;
12024;SDS011;6073;53.230;10.444;2023-04-24T00:22:24;4.60;;;4.03;;
12024;SDS011;6073;53.230;10.444;2023-04-24T00:24:50;5.78;;;3.92;;
12024;SDS011;6073;53.230;10.444;2023-04-24T00:27:15;3.78;;;3.47;;
12024;SDS011;6073;53.230;10.444;2023-04-24T00:29:41;5.45;;;4.05;;
12024;SDS011;6073;53.230;10.444;2023-04-24T00:32:06;3.88;;;3.55;;
12024;SDS011;6073;53.230;10.444;2023-04-24T00:34:32;4.20;;;3.50;;
12024;SDS011;6073;53.230;10.444;2023-04-24T00:36:58;4.22;;;3.83;;
12024;SDS011;6073;53.230;10.444;2023-04-24T00:39:23;5.22;;;3.72;;
12024;SDS011;6073;53.230;10.444;2023-04-24T00:41:49;4.80;;;3.78;;
12024;SDS011;6073;53.230;10.444;2023-04-24T00:44:15;4.40;;;4.00;;
12024;SDS011;6073;53.230;10.444;2023-04-24T00:46:41;3.65;;;3.35;;
12024;SDS011;6073;53.230;10.444;2023-04-24T00:49:07;4.10;;;3.70;;
12024;SDS011;6073;53.230;10.444;2023-04-24T00:51:33;5.10;;;3.75;;
12024;SDS011;6073;53.230;10.444;2023-04-24T00:53:59;4.35;;;3.50;;
12024;SDS011;6073;53.230;10.444;2023-04-24T00:56:25;3.95;;;3.60;;
12024;SDS011;6073;53.230;10.444;2023-04-24T00:58:51;4.10;;;3.60;;
12024;SDS011;6073;53.230;10.444;2023-04-24T01:01:21;4.40;;;3.42;;
12024;SDS011;6073;53.230;10.444;2023-04-24T01:03:47;4.13;;;3.72;;
12024;SDS011;6073;53.230;10.444;2023-04-24T01:06:15;4.25;;;3.42;;
12024;SDS011;6073;53.230;10.444;2023-04-24T01:08:40;3.67;;;3.30;;
12024;SDS011;6073;53.230;10.444;2023-04-24T01:11:07;4.60;;;3.20;;
12024;SDS011;6073;53.230;10.444;2023-04-24T01:13:32;4.88;;;3.60;;
12024;SDS011;6073;53.230;10.444;2023-04-24T01:15:59;4.55;;;3.50;;
12024;SDS011;6073;53.230;10.444;2023-04-24T01:18:25;5.07;;;3.45;;
12024;SDS011;6073;53.230;10.444;2023-04-24T01:20:52;4.63;;;3.40;;
12024;SDS011;6073;53.230;10.444;2023-04-24T01:23:20;3.83;;;3.20;;
12024;SDS011;6073;53.230;10.444;2023-04-24T01:25:45;5.50;;;3.08;;
12024;SDS011;6073;53.230;10.444;2023-04-24T01:28:11;3.28;;;2.97;;
12024;SDS011;6073;53.230;10.444;2023-04-24T01:30:39;3.38;;;3.08;;
12024;SDS011;6073;53.230;10.444;2023-04-24T01:33:04;4.28;;;3.40;;
12024;SDS011;6073;53.230;10.444;2023-04-24T01:35:30;3.17;;;2.88;;
12024;SDS011;6073;53.230;10.444;2023-04-24T01:37:56;3.65;;;3.13;;
12024;SDS011;6073;53.230;10.444;2023-04-24T01:40:21;3.15;;;2.90;;
12024;SDS011;6073;53.230;10.444;2023-04-24T01:42:47;3.28;;;2.97;;
12024;SDS011;6073;53.230;10.444;2023-04-24T01:45:13;3.30;;;2.60;;
12024;SDS011;6073;53.230;10.444;2023-04-24T01:47:38;3.35;;;3.05;;
12024;SDS011;6073;53.230;10.444;2023-04-24T01:50:04;3.17;;;2.90;;
12024;SDS011;6073;53.230;10.444;2023-04-24T01:52:31;3.50;;;3.00;;
12024;SDS011;6073;53.230;10.444;2023-04-24T01:55:01;3.20;;;2.50;;
12024;SDS011;6073;53.230;10.444;2023-04-24T01:57:28;4.10;;;2.15;;
12024;SDS011;6073;53.230;10.444;2023-04-24T01:59:55;2.40;;;2.08;;
12024;SDS011;6073;53.230;10.444;2023-04-24T02:02:21;2.30;;;2.10;;
12024;SDS011;6073;53.230;10.444;2023-04-24T02:04:48;2.22;;;2.03;;
12024;SDS011;6073;53.230;10.444;2023-04-24T02:07:14;2.45;;;2.13;;
12024;SDS011;6073;53.230;10.444;2023-04-24T02:09:40;2.20;;;2.00;;
12024;SDS011;6073;53.230;10.444;2023-04-24T02:12:05;2.13;;;1.90;;
12024;SDS011;6073;53.230;10.444;2023-04-24T02:14:31;2.10;;;1.90;;
12024;SDS011;6073;53.230;10.444;2023-04-24T02:16:57;2.25;;;2.05;;
12024;SDS011;6073;53.230;10.444;2023-04-24T02:19:22;2.53;;;2.00;;
12024;SDS011;6073;53.230;10.444;2023-04-24T02:21:48;2.35;;;2.15;;
12024;SDS011;6073;53.230;10.444;2023-04-24T02:24:13;2.47;;;2.28;;
12024;SDS011;6073;53.230;10.444;2023-04-24T02:26:39;2.80;;;2.10;;
12024;SDS011;6073;53.230;10.444;2023-04-24T02:29:05;2.83;;;2.40;;
12024;SDS011;6073;53.230;10.444;2023-04-24T02:31:30;3.75;;;2.45;;
12024;SDS011;6073;53.230;10.444;2023-04-24T02:33:56;2.20;;;2.00;;
12024;SDS011;6073;53.230;10.444;2023-04-24T02:36:21;2.15;;;1.95;;
12024;SDS011;6073;53.230;10.444;2023-04-24T02:38:47;1.95;;;1.80;;
12024;SDS011;6073;53.230;10.444;2023-04-24T02:41:12;2.33;;;1.98;;
12024;SDS011;6073;53.230;10.444;2023-04-24T02:43:38;2.83;;;2.08;;
12024;SDS011;6073;53.230;10.444;2023-04-24T02:46:03;2.42;;;2.20;;
12024;SDS011;6073;53.230;10.444;2023-04-24T02:48:29;2.80;;;2.00;;
12024;SDS011;6073;53.230;10.444;2023-04-24T02:50:55;2.00;;;1.80;;
12024;SDS011;6073;53.230;10.444;2023-04-24T02:53:20;2.50;;;2.25;;
12024;SDS011;6073;53.230;10.444;2023-04-24T02:55:46;2.22;;;2.03;;
12024;SDS011;6073;53.230;10.444;2023-04-24T02:58:11;2.20;;;1.73;;
12024;SDS011;6073;53.230;10.444;2023-04-24T03:00:38;2.60;;;2.00;;
12024;SDS011;6073;53.230;10.444;2023-04-24T03:03:04;2.28;;;1.60;;
12024;SDS011;6073;53.230;10.444;2023-04-24T03:05:30;2.00;;;1.77;;
12024;SDS011;6073;53.230;10.444;2023-04-24T03:07:56;2.83;;;1.92;;
12024;SDS011;6073;53.230;10.444;2023-04-24T03:10:21;2.60;;;1.90;;
12024;SDS011;6073;53.230;10.444;2023-04-24T03:12:47;2.60;;;1.60;;
12024;SDS011;6073;53.230;10.444;2023-04-24T03:15:13;2.08;;;1.80;;
12024;SDS011;6073;53.230;10.444;2023-04-24T03:17:38;1.63;;;1.52;;
12024;SDS011;6073;53.230;10.444;2023-04-24T03:20:04;1.52;;;1.42;;
12024;SDS011;6073;53.230;10.444;2023-04-24T03:22:31;2.50;;;1.67;;
12024;SDS011;6073;53.230;10.444;2023-04-24T03:24:57;2.30;;;1.80;;
12024;SDS011;6073;53.230;10.444;2023-04-24T03:27:23;2.33;;;1.40;;
12024;SDS011;6073;53.230;10.444;2023-04-24T03:29:48;1.70;;;1.60;;
12024;SDS011;6073;53.230;10.444;2023-04-24T03:32:18;2.30;;;1.42;;
12024;SDS011;6073;53.230;10.444;2023-04-24T03:34:44;1.50;;;1.40;;
12024;SDS011;6073;53.230;10.444;2023-04-24T03:37:10;1.98;;;1.75;;
12024;SDS011;6073;53.230;10.444;2023-04-24T03:39:35;1.40;;;1.30;;
12024;SDS011;6073;53.230;10.444;2023-04-24T03:42:01;1.50;;;1.40;;
12024;SDS011;6073;53.230;10.444;2023-04-24T03:44:26;2.03;;;1.55;;
12024;SDS011;6073;53.230;10.444;2023-04-24T03:46:52;1.42;;;1.33;;
12024;SDS011;6073;53.230;10.444;2023-04-24T03:49:18;1.30;;;1.20;;
12024;SDS011;6073;53.230;10.444;2023-04-24T03:51:43;1.50;;;1.40;;
12024;SDS011;6073;53.230;10.444;2023-04-24T03:54:09;1.98;;;1.30;;
12024;SDS011;6073;53.230;10.444;2023-04-24T03:56:34;1.75;;;1.30;;
12024;SDS011;6073;53.230;10.444;2023-04-24T03:59:00;1.58;;;1.40;;
12024;SDS011;6073;53.230;10.444;2023-04-24T04:01:25;2.55;;;1.25;;
12024;SDS011;6073;53.230;10.444;2023-04-24T04:03:53;1.35;;;1.25;;
12024;SDS011;6073;53.230;10.444;2023-04-24T04:06:18;2.35;;;1.63;;
12024;SDS011;6073;53.230;10.444;2023-04-24T04:08:44;1.55;;;1.45;;
12024;SDS011;6073;53.230;10.444;2023-04-24T04:11:10;1.38;;;1.02;;
12024;SDS011;6073;53.230;10.444;2023-04-24T04:13:35;1.85;;;1.30;;
12024;SDS011;6073;53.230;10.444;2023-04-24T04:16:01;1.38;;;1.27;;
12024;SDS011;6073;53.230;10.444;2023-04-24T04:18:26;1.60;;;1.20;;
12024;SDS011;6073;53.230;10.444;2023-04-24T04:20:52;1.20;;;1.10;;
12024;SDS011;6073;53.230;10.444;2023-04-24T04:23:18;1.38;;;1.20;;
12024;SDS011;6073;53.230;10.444;2023-04-24T04:25:43;1.70;;;1.10;;
12024;SDS011;6073;53.230;10.444;2023-04-24T04:28:09;1.10;;;1.08;;
12024;SDS011;6073;53.230;10.444;2023-04-24T04:30:34;1.65;;;1.38;;
12024;SDS011;6073;53.230;10.444;2023-04-24T04:33:03;1.17;;;1.08;;
12024;SDS011;6073;53.230;10.444;2023-04-24T04:35:28;1.30;;;1.20;;
12024;SDS011;6073;53.230;10.444;2023-04-24T04:37:54;1.30;;;1.20;;
12024;SDS011;6073;53.230;10.444;2023-04-24T04:40:21;1.50;;;1.40;;
12024;SDS011;6073;53.230;10.444;2023-04-24T04:42:46;1.00;;;1.00;;
12024;SDS011;6073;53.230;10.444;2023-04-24T04:45:12;1.00;;;1.00;;
12024;SDS011;6073;53.230;10.444;2023-04-24T04:47:38;1.10;;;1.08;;
12024;SDS011;6073;53.230;10.444;2023-04-24T04:50:04;0.90;;;0.90;;
12024;SDS011;6073;53.230;10.444;2023-04-24T04:52:30;1.15;;;1.05;;
12024;SDS011;6073;53.230;10.444;2023-04-24T04:54:56;1.48;;;1.38;;
12024;SDS011;6073;53.230;10.444;2023-04-24T04:57:21;2.05;;;1.20;;
12024;SDS011;6073;53.230;10.444;2023-04-24T04:59:47;1.90;;;1.30;;
12024;SDS011;6073;53.230;10.444;2023-04-24T05:02:12;1.27;;;1.17;;
12024;SDS011;6073;53.230;10.444;2023-04-24T05:04:38;2.13;;;1.30;;
12024;SDS011;6073;53.230;10.444;2023-04-24T05:07:03;1.20;;;1.10;;
12024;SDS011;6073;53.230;10.444;2023-04-24T05:09:29;1.00;;;0.88;;
12024;SDS011;6073;53.230;10.444;2023-04-24T05:11:55;0.85;;;0.80;;
12024;SDS011;6073;53.230;10.444;2023-04-24T05:14:21;1.30;;;1.20;;
12024;SDS011;6073;53.230;10.444;2023-04-24T05:16:47;1.05;;;0.95;;
12024;SDS011;6073;53.230;10.444;2023-04-24T05:19:12;1.52;;;1.20;;
12024;SDS011;6073;53.230;10.444;2023-04-24T05:21:39;1.00;;;0.90;;
12024;SDS011;6073;53.230;10.444;2023-04-24T05:24:05;1.83;;;1.00;;
12024;SDS011;6073;53.230;10.444;2023-04-24T05:26:31;1.20;;;1.10;;
12024;SDS011;6073;53.230;10.444;2023-04-24T05:28:56;1.85;;;1.20;;
12024;SDS011;6073;53.230;10.444;2023-04-24T05:31:22;3.00;;;1.40;;
12024;SDS011;6073;53.230;10.444;2023-04-24T05:33:47;2.17;;;1.10;;
12024;SDS011;6073;53.230;10.444;2023-04-24T05:36:13;1.10;;;1.00;;
12024;SDS011;6073;53.230;10.444;2023-04-24T05:38:39;1.50;;;1.08;;
12024;SDS011;6073;53.230;10.444;2023-04-24T05:41:04;1.38;;;0.90;;
12024;SDS011;6073;53.230;10.444;2023-04-24T05:43:30;1.30;;;1.00;;
12024;SDS011;6073;53.230;10.444;2023-04-24T05:45:55;0.88;;;0.88;;
12024;SDS011;6073;53.230;10.444;2023-04-24T05:48:21;1.42;;;1.02;;
12024;SDS011;6073;53.230;10.444;2023-04-24T05:50:47;1.10;;;1.10;;
12024;SDS011;6073;53.230;10.444;2023-04-24T05:53:13;1.02;;;1.00;;
12024;SDS011;6073;53.230;10.444;2023-04-24T05:55:38;2.13;;;1.23;;
12024;SDS011;6073;53.230;10.444;2023-04-24T05:58:04;1.20;;;1.08;;
12024;SDS011;6073;53.230;10.444;2023-04-24T06:00:30;1.88;;;0.98;;
12024;SDS011;6073;53.230;10.444;2023-04-24T06:02:56;0.82;;;0.75;;
12024;SDS011;6073;53.230;10.444;2023-04-24T06:05:21;1.20;;;1.10;;
12024;SDS011;6073;53.230;10.444;2023-04-24T06:07:47;1.45;;;1.08;;
12024;SDS011;6073;53.230;10.444;2023-04-24T06:10:13;0.70;;;0.70;;
12024;SDS011;6073;53.230;10.444;2023-04-24T06:12:39;0.82;;;0.82;;
12024;SDS011;6073;53.230;10.444;2023-04-24T06:15:04;0.60;;;0.60;;
12024;SDS011;6073;53.230;10.444;2023-04-24T06:17:31;0.80;;;0.80;;
12024;SDS011;6073;53.230;10.444;2023-04-24T06:19:57;1.00;;;1.00;;
12024;SDS011;6073;53.230;10.444;2023-04-24T06:22:22;1.23;;;1.10;;
12024;SDS011;6073;53.230;10.444;2023-04-24T06:24:48;1.20;;;0.95;;
12024;SDS011;6073;53.230;10.444;2023-04-24T06:27:13;0.82;;;0.77;;
12024;SDS011;6073;53.230;10.444;2023-04-24T06:29:39;0.70;;;0.70;;
12024;SDS011;6073;53.230;10.444;2023-04-24T06:32:04;1.20;;;1.05;;
12024;SDS011;6073;53.230;10.444;2023-04-24T06:34:30;0.80;;;0.80;;
12024;SDS011;6073;53.230;10.444;2023-04-24T06:36:57;1.33;;;0.77;;
12024;SDS011;6073;53.230;10.444;2023-04-24T06:39:23;1.02;;;0.93;;
12024;SDS011;6073;53.230;10.444;2023-04-24T06:41:48;0.65;;;0.65;;
12024;SDS011;6073;53.230;10.444;2023-04-24T06:44:14;2.70;;;0.80;;
12024;SDS011;6073;53.230;10.444;2023-04-24T06:46:40;0.73;;;0.55;;
12024;SDS011;6073;53.230;10.444;2023-04-24T06:49:06;1.10;;;0.90;;
12024;SDS011;6073;53.230;10.444;2023-04-24T06:51:32;0.60;;;0.60;;
12024;SDS011;6073;53.230;10.444;2023-04-24T06:53:58;1.42;;;0.90;;
12024;SDS011;6073;53.230;10.444;2023-04-24T06:56:24;3.10;;;0.90;;
12024;SDS011;6073;53.230;10.444;2023-04-24T06:58:50;1.42;;;0.82;;
12024;SDS011;6073;53.230;10.444;2023-04-24T07:01:16;0.90;;;0.90;;
12024;SDS011;6073;53.230;10.444;2023-04-24T07:03:42;0.88;;;0.68;;
12024;SDS011;6073;53.230;10.444;2023-04-24T07:06:08;1.42;;;0.95;;
12024;SDS011;6073;53.230;10.444;2023-04-24T07:08:36;1.20;;;0.95;;
12024;SDS011;6073;53.230;10.444;2023-04-24T07:11:01;0.85;;;0.70;;
12024;SDS011;6073;53.230;10.444;2023-04-24T07:13:27;1.13;;;1.02;;
12024;SDS011;6073;53.230;10.444;2023-04-24T07:15:53;3.05;;;0.93;;
12024;SDS011;6073;53.230;10.444;2023-04-24T07:18:20;0.80;;;0.70;;
12024;SDS011;6073;53.230;10.444;2023-04-24T07:20:46;1.10;;;0.90;;
12024;SDS011;6073;53.230;10.444;2023-04-24T07:23:11;0.70;;;0.70;;
12024;SDS011;6073;53.230;10.444;2023-04-24T07:25:37;1.05;;;0.90;;
12024;SDS011;6073;53.230;10.444;2023-04-24T07:28:03;0.95;;;0.82;;
12024;SDS011;6073;53.230;10.444;2023-04-24T07:30:29;0.60;;;0.60;;
12024;SDS011;6073;53.230;10.444;2023-04-24T07:32:55;0.77;;;0.77;;
12024;SDS011;6073;53.230;10.444;2023-04-24T07:35:21;1.23;;;1.10;;
12024;SDS011;6073;53.230;10.444;2023-04-24T07:37:47;1.48;;;0.80;;
12024;SDS011;6073;53.230;10.444;2023-04-24T07:40:13;1.10;;;1.00;;
12024;SDS011;6073;53.230;10.444;2023-04-24T07:42:38;0.98;;;0.98;;
12024;SDS011;6073;53.230;10.444;2023-04-24T07:45:04;1.20;;;0.82;;
12024;SDS011;6073;53.230;10.444;2023-04-24T07:47:31;1.95;;;1.20;;
12024;SDS011;6073;53.230;10.444;2023-04-24T07:49:57;1.65;;;0.93;;
12024;SDS011;6073;53.230;10.444;2023-04-24T07:52:23;1.33;;;1.00;;
12024;SDS011;6073;53.230;10.444;2023-04-24T07:54:49;1.50;;;1.20;;
12024;SDS011;6073;53.230;10.444;2023-04-24T07:57:15;1.30;;;1.20;;
12024;SDS011;6073;53.230;10.444;2023-04-24T07:59:41;1.92;;;1.30;;
12024;SDS011;6073;53.230;10.444;2023-04-24T08:02:06;1.30;;;1.20;;
12024;SDS011;6073;53.230;10.444;2023-04-24T08:04:32;2.17;;;1.00;;
12024;SDS011;6073;53.230;10.444;2023-04-24T08:06:58;1.60;;;1.15;;
12024;SDS011;6073;53.230;10.444;2023-04-24T08:09:24;1.25;;;1.15;;
12024;SDS011;6073;53.230;10.444;2023-04-24T08:11:49;1.20;;;1.10;;
12024;SDS011;6073;53.230;10.444;2023-04-24T08:14:15;1.20;;;1.10;;
12024;SDS011;6073;53.230;10.444;2023-04-24T08:16:40;1.42;;;1.27;;
12024;SDS011;6073;53.230;10.444;2023-04-24T08:19:07;1.20;;;0.90;;
12024;SDS011;6073;53.230;10.444;2023-04-24T08:21:32;1.05;;;0.95;;
12024;SDS011;6073;53.230;10.444;2023-04-24T08:23:58;1.60;;;1.50;;
12024;SDS011;6073;53.230;10.444;2023-04-24T08:26:23;2.05;;;1.52;;
12024;SDS011;6073;53.230;10.444;2023-04-24T08:28:49;1.20;;;1.10;;
12024;SDS011;6073;53.230;10.444;2023-04-24T08:31:15;2.33;;;1.42;;
12024;SDS011;6073;53.230;10.444;2023-04-24T08:33:40;1.20;;;1.10;;
12024;SDS011;6073;53.230;10.444;2023-04-24T08:36:06;1.60;;;1.50;;
12024;SDS011;6073;53.230;10.444;2023-04-24T08:38:32;1.30;;;1.20;;
12024;SDS011;6073;53.230;10.444;2023-04-24T08:40:59;2.00;;;1.48;;
12024;SDS011;6073;53.230;10.444;2023-04-24T08:43:26;1.52;;;1.25;;
12024;SDS011;6073;53.230;10.444;2023-04-24T08:45:52;2.22;;;1.60;;
12024;SDS011;6073;53.230;10.444;2023-04-24T08:48:20;1.50;;;1.40;;
12024;SDS011;6073;53.230;10.444;2023-04-24T08:50:48;1.77;;;1.48;;
12024;SDS011;6073;53.230;10.444;2023-04-24T08:53:15;3.72;;;1.60;;
12024;SDS011;6073;53.230;10.444;2023-04-24T08:55:41;2.53;;;1.85;;
12024;SDS011;6073;53.230;10.444;2023-04-24T08:58:11;2.42;;;1.67;;
12024;SDS011;6073;53.230;10.444;2023-04-24T09:00:38;2.10;;;1.90;;
12024;SDS011;6073;53.230;10.444;2023-04-24T09:03:04;2.00;;;1.90;;
12024;SDS011;6073;53.230;10.444;2023-04-24T09:05:31;2.65;;;2.40;;
12024;SDS011;6073;53.230;10.444;2023-04-24T09:07:57;2.78;;;2.40;;
12024;SDS011;6073;53.230;10.444;2023-04-24T09:10:26;2.38;;;2.17;;
12024;SDS011;6073;53.230;10.444;2023-04-24T09:12:55;2.40;;;2.20;;
12024;SDS011;6073;53.230;10.444;2023-04-24T09:15:23;2.90;;;2.40;;
12024;SDS011;6073;53.230;10.444;2023-04-24T09:17:49;3.95;;;2.45;;
12024;SDS011;6073;53.230;10.444;2023-04-24T09:20:15;3.42;;;2.67;;
12024;SDS011;6073;53.230;10.444;2023-04-24T09:22:42;4.00;;;3.13;;
12024;SDS011;6073;53.230;10.444;2023-04-24T09:25:08;4.00;;;3.30;;
12024;SDS011;6073;53.230;10.444;2023-04-24T09:27:37;3.53;;;3.20;;
12024;SDS011;6073;53.230;10.444;2023-04-24T09:30:07;4.03;;;3.60;;
12024;SDS011;6073;53.230;10.444;2023-04-24T09:32:33;3.60;;;3.30;;
12024;SDS011;6073;53.230;10.444;2023-04-24T09:35:06;3.85;;;3.55;;
12024;SDS011;6073;53.230;10.444;2023-04-24T09:37:42;4.15;;;3.75;;
12024;SDS011;6073;53.230;10.444;2023-04-24T09:40:10;4.65;;;3.65;;
12024;SDS011;6073;53.230;10.444;2023-04-24T09:42:39;4.68;;;3.75;;
12024;SDS011;6073;53.230;10.444;2023-04-24T09:45:08;3.97;;;3.50;;
12024;SDS011;6073;53.230;10.444;2023-04-24T09:47:36;4.20;;;3.47;;
12024;SDS011;6073;53.230;10.444;2023-04-24T09:50:09;4.45;;;3.35;;
12024;SDS011;6073;53.230;10.444;2023-04-24T09:52:39;5.15;;;3.85;;
12024;SDS011;6073;53.230;10.444;2023-04-24T09:55:21;4.18;;;3.75;;
12024;SDS011;6073;53.230;10.444;2023-04-24T09:57:47;4.03;;;3.63;;
12024;SDS011;6073;53.230;10.444;2023-04-24T10:00:27;5.93;;;3.78;;
12024;SDS011;6073;53.230;10.444;2023-04-24T10:03:03;5.93;;;3.65;;
12024;SDS011;6073;53.230;10.444;2023-04-24T10:05:31;4.38;;;3.97;;
12024;SDS011;6073;53.230;10.444;2023-04-24T10:08:05;4.30;;;3.90;;
12024;SDS011;6073;53.230;10.444;2023-04-24T10:10:33;6.45;;;4.20;;
12024;SDS011;6073;53.230;10.444;2023-04-24T10:13:00;4.70;;;3.83;;
12024;SDS011;6073;53.230;10.444;2023-04-24T10:15:26;5.40;;;4.13;;
12024;SDS011;6073;53.230;10.444;2023-04-24T10:17:52;6.60;;;4.95;;
12024;SDS011;6073;53.230;10.444;2023-04-24T10:20:19;4.85;;;4.25;;
12024;SDS011;6073;53.230;10.444;2023-04-24T10:22:49;5.32;;;4.80;;
12024;SDS011;6073;53.230;10.444;2023-04-24T10:25:20;5.35;;;4.68;;
12024;SDS011;6073;53.230;10.444;2023-04-24T10:27:48;5.18;;;4.05;;
12024;SDS011;6073;53.230;10.444;2023-04-24T10:30:15;6.32;;;4.68;;
12024;SDS011;6073;53.230;10.444;2023-04-24T10:32:41;5.13;;;4.43;;
12024;SDS011;6073;53.230;10.444;2023-04-24T10:35:07;5.30;;;4.72;;
12024;SDS011;6073;53.230;10.444;2023-04-24T10:37:35;5.47;;;4.57;;
12024;SDS011;6073;53.230;10.444;2023-04-24T10:40:07;6.90;;;5.05;;
12024;SDS011;6073;53.230;10.444;2023-04-24T10:42:35;5.60;;;4.60;;
12024;SDS011;6073;53.230;10.444;2023-04-24T10:45:05;4.85;;;3.75;;
12024;SDS011;6073;53.230;10.444;2023-04-24T10:47:39;6.60;;;4.57;;
12024;SDS011;6073;53.230;10.444;2023-04-24T10:50:08;4.75;;;4.22;;
12024;SDS011;6073;53.230;10.444;2023-04-24T10:52:44;5.70;;;4.78;;
12024;SDS011;6073;53.230;10.444;2023-04-24T10:55:15;4.40;;;4.00;;
12024;SDS011;6073;53.230;10.444;2023-04-24T10:58:00;5.07;;;4.32;;
12024;SDS011;6073;53.230;10.444;2023-04-24T11:00:28;4.28;;;3.72;;
12024;SDS011;6073;53.230;10.444;2023-04-24T11:02:53;5.15;;;4.45;;
12024;SDS011;6073;53.230;10.444;2023-04-24T11:05:20;6.13;;;4.25;;
12024;SDS011;6073;53.230;10.444;2023-04-24T11:10:54;4.25;;;3.85;;
12024;SDS011;6073;53.230;10.444;2023-04-24T11:16:28;3.97;;;3.30;;
12024;SDS011;6073;53.230;10.444;2023-04-24T11:19:04;4.15;;;2.80;;
12024;SDS011;6073;53.230;10.444;2023-04-24T11:21:40;4.97;;;3.15;;
12024;SDS011;6073;53.230;10.444;2023-04-24T11:26:53;3.83;;;3.10;;
12024;SDS011;6073;53.230;10.444;2023-04-24T11:29:20;2.80;;;2.60;;
12024;SDS011;6073;53.230;10.444;2023-04-24T11:31:46;2.50;;;2.30;;
12024;SDS011;6073;53.230;10.444;2023-04-24T11:34:16;3.10;;;2.20;;
12024;SDS011;6073;53.230;10.444;2023-04-24T11:36:43;2.58;;;2.38;;
12024;SDS011;6073;53.230;10.444;2023-04-24T11:39:09;2.58;;;2.38;;
12024;SDS011;6073;53.230;10.444;2023-04-24T11:41:36;3.05;;;2.40;;
12024;SDS011;6073;53.230;10.444;2023-04-24T11:44:02;2.88;;;2.55;;
12024;SDS011;6073;53.230;10.444;2023-04-24T11:46:30;3.72;;;2.70;;
12024;SDS011;6073;53.230;10.444;2023-04-24T11:48:57;2.45;;;2.17;;
12024;SDS011;6073;53.230;10.444;2023-04-24T11:51:23;2.85;;;2.50;;
12024;SDS011;6073;53.230;10.444;2023-04-24T11:53:53;3.20;;;2.90;;
12024;SDS011;6073;53.230;10.444;2023-04-24T11:56:21;2.63;;;2.42;;
12024;SDS011;6073;53.230;10.444;2023-04-24T11:58:47;4.55;;;3.17;;
12024;SDS011;6073;53.230;10.444;2023-04-24T12:01:13;4.60;;;3.00;;
12024;SDS011;6073;53.230;10.444;2023-04-24T12:03:39;3.42;;;2.70;;
12024;SDS011;6073;53.230;10.444;2023-04-24T12:06:08;3.10;;;2.75;;
12024;SDS011;6073;53.230;10.444;2023-04-24T12:08:35;3.78;;;2.67;;
12024;SDS011;6073;53.230;10.444;2023-04-24T12:11:01;3.25;;;2.95;;
12024;SDS011;6073;53.230;10.444;2023-04-24T12:13:28;3.63;;;2.97;;
12024;SDS011;6073;53.230;10.444;2023-04-24T12:15:54;3.08;;;2.58;;
12024;SDS011;6073;53.230;10.444;2023-04-24T12:18:22;3.22;;;2.95;;
12024;SDS011;6073;53.230;10.444;2023-04-24T12:20:48;3.33;;;3.03;;
12024;SDS011;6073;53.230;10.444;2023-04-24T12:23:14;3.60;;;2.88;;
12024;SDS011;6073;53.230;10.444;2023-04-24T12:25:40;3.33;;;3.03;;
12024;SDS011;6073;53.230;10.444;2023-04-24T12:30:35;4.18;;;3.20;;
12024;SDS011;6073;53.230;10.444;2023-04-24T12:33:22;4.07;;;2.83;;
12024;SDS011;6073;53.230;10.444;2023-04-24T12:35:48;2.95;;;2.70;;
12024;SDS011;6073;53.230;10.444;2023-04-24T12:38:21;2.88;;;2.47;;
12024;SDS011;6073;53.230;10.444;2023-04-24T12:41:00;2.90;;;2.60;;
12024;SDS011;6073;53.230;10.444;2023-04-24T12:43:30;2.33;;;2.10;;
12024;SDS011;6073;53.230;10.444;2023-04-24T12:45:56;2.83;;;2.60;;
12024;SDS011;6073;53.230;10.444;2023-04-24T12:48:22;2.80;;;2.50;;
12024;SDS011;6073;53.230;10.444;2023-04-24T12:50:48;3.35;;;2.53;;
12024;SDS011;6073;53.230;10.444;2023-04-24T12:53:14;3.45;;;2.25;;
12024;SDS011;6073;53.230;10.444;2023-04-24T12:55:40;2.15;;;2.05;;
12024;SDS011;6073;53.230;10.444;2023-04-24T12:58:06;3.20;;;2.33;;
12024;SDS011;6073;53.230;10.444;2023-04-24T13:00:32;2.20;;;2.00;;
12024;SDS011;6073;53.230;10.444;2023-04-24T13:02:58;2.45;;;2.25;;
12024;SDS011;6073;53.230;10.444;2023-04-24T13:05:23;2.95;;;2.45;;
12024;SDS011;6073;53.230;10.444;2023-04-24T13:07:49;2.30;;;2.10;;
12024;SDS011;6073;53.230;10.444;2023-04-24T13:10:15;1.90;;;1.80;;
12024;SDS011;6073;53.230;10.444;2023-04-24T13:12:41;3.08;;;1.83;;
12024;SDS011;6073;53.230;10.444;2023-04-24T13:15:10;1.98;;;1.88;;
12024;SDS011;6073;53.230;10.444;2023-04-24T13:17:35;1.77;;;1.67;;
12024;SDS011;6073;53.230;10.444;2023-04-24T13:20:01;1.60;;;1.50;;
12024;SDS011;6073;53.230;10.444;2023-04-24T13:22:27;2.50;;;1.83;;
12024;SDS011;6073;53.230;10.444;2023-04-24T13:24:53;2.67;;;1.95;;
12024;SDS011;6073;53.230;10.444;2023-04-24T13:27:18;1.77;;;1.67;;
12024;SDS011;6073;53.230;10.444;2023-04-24T13:29:44;1.77;;;1.60;;
12024;SDS011;6073;53.230;10.444;2023-04-24T13:32:10;2.13;;;1.70;;
12024;SDS011;6073;53.230;10.444;2023-04-24T13:34:36;2.08;;;1.98;;
12024;SDS011;6073;53.230;10.444;2023-04-24T13:37:02;2.10;;;1.90;;
12024;SDS011;6073;53.230;10.444;2023-04-24T13:39:31;1.88;;;1.75;;
12024;SDS011;6073;53.230;10.444;2023-04-24T13:41:57;2.03;;;1.80;;
12024;SDS011;6073;53.230;10.444;2023-04-24T13:44:23;1.83;;;1.73;;
12024;SDS011;6073;53.230;10.444;2023-04-24T13:46:49;2.30;;;1.70;;
12024;SDS011;6073;53.230;10.444;2023-04-24T13:49:19;1.88;;;1.33;;
12024;SDS011;6073;53.230;10.444;2023-04-24T13:51:45;1.70;;;1.60;;
12024;SDS011;6073;53.230;10.444;2023-04-24T13:54:11;1.98;;;1.88;;
12024;SDS011;6073;53.230;10.444;2023-04-24T13:56:37;4.07;;;1.70;;
12024;SDS011;6073;53.230;10.444;2023-04-24T13:59:06;2.70;;;1.80;;
12024;SDS011;6073;53.230;10.444;2023-04-24T14:01:32;2.88;;;1.85;;
12024;SDS011;6073;53.230;10.444;2023-04-24T14:03:57;2.05;;;1.80;;
12024;SDS011;6073;53.230;10.444;2023-04-24T14:06:23;2.00;;;1.85;;
12024;SDS011;6073;53.230;10.444;2023-04-24T14:08:49;2.28;;;1.65;;
12024;SDS011;6073;53.230;10.444;2023-04-24T14:11:15;4.15;;;3.00;;
12024;SDS011;6073;53.230;10.444;2023-04-24T14:13:42;2.05;;;1.85;;
12024;SDS011;6073;53.230;10.444;2023-04-24T14:16:08;3.60;;;1.80;;
12024;SDS011;6073;53.230;10.444;2023-04-24T14:18:34;1.90;;;1.73;;
12024;SDS011;6073;53.230;10.444;2023-04-24T14:21:01;3.13;;;2.17;;
12024;SDS011;6073;53.230;10.444;2023-04-24T14:23:27;2.10;;;2.00;;
12024;SDS011;6073;53.230;10.444;2023-04-24T14:25:52;3.03;;;2.10;;
12024;SDS011;6073;53.230;10.444;2023-04-24T14:28:18;1.70;;;1.60;;
12024;SDS011;6073;53.230;10.444;2023-04-24T14:30:45;1.88;;;1.75;;
12024;SDS011;6073;53.230;10.444;2023-04-24T14:33:11;1.73;;;1.63;;
12024;SDS011;6073;53.230;10.444;2023-04-24T14:35:37;2.65;;;2.08;;
12024;SDS011;6073;53.230;10.444;2023-04-24T14:38:04;2.28;;;1.85;;
12024;SDS011;6073;53.230;10.444;2023-04-24T14:40:30;1.80;;;1.70;;
12024;SDS011;6073;53.230;10.444;2023-04-24T14:42:57;1.70;;;1.60;;
12024;SDS011;6073;53.230;10.444;2023-04-24T14:45:23;1.85;;;1.75;;
12024;SDS011;6073;53.230;10.444;2023-04-24T14:47:49;1.27;;;1.17;;
12024;SDS011;6073;53.230;10.444;2023-04-24T14:50:14;0.95;;;0.93;;
12024;SDS011;6073;53.230;10.444;2023-04-24T14:52:40;0.90;;;0.90;;
12024;SDS011;6073;53.230;10.444;2023-04-24T14:55:06;0.77;;;0.70;;